sensor_id;sensor_type;location;lat;lon;timestamp;temperature;humidity
1602;DHT22;794;48.592;9.634;2024-03-02T00:00:59;4.30;1.00
1602;DHT22;794;48.592;9.634;2024-03-02T00:03:26;4.60;1.00
1602;DHT22;794;48.592;9.634;2024-03-02T00:08:23;4.50;1.00
1602;DHT22;794;48.592;9.634;2024-03-02T00:10:51;4.60;1.00
1602;DHT22;794;48.592;9.634;2024-03-02T00:13:20;4.70;1.00
1602;DHT22;794;48.592;9.634;2024-03-02T00:15:52;4.70;1.00
1602;DHT22;794;48.592;9.634;2024-03-02T00:18:23;4.90;1.00
1602;DHT22;794;48.592;9.634;2024-03-02T00:20:53;5.00;1.00
1602;DHT22;794;48.592;9.634;2024-03-02T00:25:50;4.90;1.00
1602;DHT22;794;48.592;9.634;2024-03-02T00:28:20;5.10;1.00
1602;DHT22;794;48.592;9.634;2024-03-02T00:30:59;5.20;1.00
1602;DHT22;794;48.592;9.634;2024-03-02T00:33:32;5.10;1.00
1602;DHT22;794;48.592;9.634;2024-03-02T00:35:59;6.20;1.00
1602;DHT22;794;48.592;9.634;2024-03-02T00:38:29;5.20;1.00
1602;DHT22;794;48.592;9.634;2024-03-02T00:40:57;5.30;1.00
1602;DHT22;794;48.592;9.634;2024-03-02T00:43:42;6.10;1.00
1602;DHT22;794;48.592;9.634;2024-03-02T00:46:13;5.00;1.00
1602;DHT22;794;48.592;9.634;2024-03-02T00:48:53;5.30;1.00
1602;DHT22;794;48.592;9.634;2024-03-02T00:51:21;5.30;1.00
1602;DHT22;794;48.592;9.634;2024-03-02T00:53:48;5.20;1.00
1602;DHT22;794;48.592;9.634;2024-03-02T00:56:15;5.30;1.00
1602;DHT22;794;48.592;9.634;2024-03-02T01:03:38;5.00;1.00
1602;DHT22;794;48.592;9.634;2024-03-02T01:06:07;5.30;1.00
1602;DHT22;794;48.592;9.634;2024-03-02T01:08:34;4.90;1.00
1602;DHT22;794;48.592;9.634;2024-03-02T01:11:01;5.40;1.00
1602;DHT22;794;48.592;9.634;2024-03-02T01:13:28;5.20;1.00
1602;DHT22;794;48.592;9.634;2024-03-02T01:15:55;5.30;1.00
1602;DHT22;794;48.592;9.634;2024-03-02T01:20:52;5.20;1.00
1602;DHT22;794;48.592;9.634;2024-03-02T01:23:21;5.30;1.00
1602;DHT22;794;48.592;9.634;2024-03-02T01:25:48;5.30;1.00
1602;DHT22;794;48.592;9.634;2024-03-02T01:28:15;5.30;1.00
1602;DHT22;794;48.592;9.634;2024-03-02T01:30:44;6.40;1.00
1602;DHT22;794;48.592;9.634;2024-03-02T01:38:07;5.10;1.00
1602;DHT22;794;48.592;9.634;2024-03-02T01:40:34;6.00;1.00
1602;DHT22;794;48.592;9.634;2024-03-02T01:43:01;5.70;1.00
1602;DHT22;794;48.592;9.634;2024-03-02T01:50:27;5.30;1.00
1602;DHT22;794;48.592;9.634;2024-03-02T01:52:55;5.40;1.00
1602;DHT22;794;48.592;9.634;2024-03-02T01:55:24;5.50;1.00
1602;DHT22;794;48.592;9.634;2024-03-02T02:00:20;5.20;1.00
1602;DHT22;794;48.592;9.634;2024-03-02T02:02:48;5.40;1.00
1602;DHT22;794;48.592;9.634;2024-03-02T02:05:15;5.00;1.00
1602;DHT22;794;48.592;9.634;2024-03-02T02:07:43;5.00;1.00
1602;DHT22;794;48.592;9.634;2024-03-02T02:10:10;4.90;1.00
1602;DHT22;794;48.592;9.634;2024-03-02T02:12:38;5.10;1.00
1602;DHT22;794;48.592;9.634;2024-03-02T02:15:27;5.50;1.00
1602;DHT22;794;48.592;9.634;2024-03-02T02:17:54;5.20;1.00
1602;DHT22;794;48.592;9.634;2024-03-02T02:20:21;5.00;1.00
1602;DHT22;794;48.592;9.634;2024-03-02T02:22:57;4.90;1.00
1602;DHT22;794;48.592;9.634;2024-03-02T02:27:51;5.00;1.00
1602;DHT22;794;48.592;9.634;2024-03-02T02:30:19;6.40;1.00
1602;DHT22;794;48.592;9.634;2024-03-02T02:32:47;5.00;1.00
1602;DHT22;794;48.592;9.634;2024-03-02T02:35:14;4.80;1.00
1602;DHT22;794;48.592;9.634;2024-03-02T02:37:41;3.20;1.00
1602;DHT22;794;48.592;9.634;2024-03-02T02:40:11;5.00;1.00
1602;DHT22;794;48.592;9.634;2024-03-02T02:42:38;4.90;1.00
1602;DHT22;794;48.592;9.634;2024-03-02T02:45:05;5.30;1.00
1602;DHT22;794;48.592;9.634;2024-03-02T02:50:01;4.80;1.00
1602;DHT22;794;48.592;9.634;2024-03-02T02:52:31;4.90;1.00
1602;DHT22;794;48.592;9.634;2024-03-02T02:55:01;5.00;1.00
1602;DHT22;794;48.592;9.634;2024-03-02T02:57:30;4.50;1.00
1602;DHT22;794;48.592;9.634;2024-03-02T03:00:01;4.70;1.00
1602;DHT22;794;48.592;9.634;2024-03-02T03:02:34;4.70;1.00
1602;DHT22;794;48.592;9.634;2024-03-02T03:05:01;5.00;1.00
1602;DHT22;794;48.592;9.634;2024-03-02T03:07:28;4.60;1.00
1602;DHT22;794;48.592;9.634;2024-03-02T03:14:52;4.60;1.00
1602;DHT22;794;48.592;9.634;2024-03-02T03:19:46;4.60;1.00
1602;DHT22;794;48.592;9.634;2024-03-02T03:22:13;4.70;1.00
1602;DHT22;794;48.592;9.634;2024-03-02T03:24:40;4.40;1.00
1602;DHT22;794;48.592;9.634;2024-03-02T03:29:36;4.30;1.00
1602;DHT22;794;48.592;9.634;2024-03-02T03:32:05;4.20;1.00
1602;DHT22;794;48.592;9.634;2024-03-02T03:34:32;4.20;1.00
1602;DHT22;794;48.592;9.634;2024-03-02T03:36:59;4.40;1.00
1602;DHT22;794;48.592;9.634;2024-03-02T03:39:26;4.20;1.00
1602;DHT22;794;48.592;9.634;2024-03-02T03:41:53;4.40;1.00
1602;DHT22;794;48.592;9.634;2024-03-02T03:44:20;4.40;1.00
1602;DHT22;794;48.592;9.634;2024-03-02T03:46:47;4.30;1.00
1602;DHT22;794;48.592;9.634;2024-03-02T03:49:15;4.10;1.00
1602;DHT22;794;48.592;9.634;2024-03-02T03:51:42;4.20;1.00
1602;DHT22;794;48.592;9.634;2024-03-02T03:54:09;4.10;1.00
1602;DHT22;794;48.592;9.634;2024-03-02T03:56:37;4.20;1.00
1602;DHT22;794;48.592;9.634;2024-03-02T03:59:04;4.10;1.00
1602;DHT22;794;48.592;9.634;2024-03-02T04:01:31;5.10;1.00
1602;DHT22;794;48.592;9.634;2024-03-02T04:03:59;4.20;1.00
1602;DHT22;794;48.592;9.634;2024-03-02T04:06:29;4.30;1.00
1602;DHT22;794;48.592;9.634;2024-03-02T04:08:55;4.00;1.00
1602;DHT22;794;48.592;9.634;2024-03-02T04:13:50;4.00;1.00
1602;DHT22;794;48.592;9.634;2024-03-02T04:16:16;3.70;1.00
1602;DHT22;794;48.592;9.634;2024-03-02T04:18:43;3.90;1.00
1602;DHT22;794;48.592;9.634;2024-03-02T04:21:10;3.60;1.00
1602;DHT22;794;48.592;9.634;2024-03-02T04:23:39;3.80;1.00
1602;DHT22;794;48.592;9.634;2024-03-02T04:26:06;3.60;1.00
1602;DHT22;794;48.592;9.634;2024-03-02T04:28:33;4.20;1.00
1602;DHT22;794;48.592;9.634;2024-03-02T04:30:59;3.90;1.00
1602;DHT22;794;48.592;9.634;2024-03-02T04:38:21;3.80;1.00
1602;DHT22;794;48.592;9.634;2024-03-02T04:40:49;3.90;1.00
1602;DHT22;794;48.592;9.634;2024-03-02T04:45:44;3.60;1.00
1602;DHT22;794;48.592;9.634;2024-03-02T04:48:11;3.70;1.00
1602;DHT22;794;48.592;9.634;2024-03-02T04:50:38;3.90;1.00
1602;DHT22;794;48.592;9.634;2024-03-02T04:53:04;4.10;1.00
1602;DHT22;794;48.592;9.634;2024-03-02T04:55:31;3.80;1.00
1602;DHT22;794;48.592;9.634;2024-03-02T04:58:30;3.90;1.00
1602;DHT22;794;48.592;9.634;2024-03-02T05:03:24;3.80;1.00
1602;DHT22;794;48.592;9.634;2024-03-02T05:05:51;3.80;1.00
1602;DHT22;794;48.592;9.634;2024-03-02T05:08:18;3.90;1.00
1602;DHT22;794;48.592;9.634;2024-03-02T05:10:45;3.70;1.00
1602;DHT22;794;48.592;9.634;2024-03-02T05:13:12;4.90;1.00
1602;DHT22;794;48.592;9.634;2024-03-02T05:15:40;3.60;1.00
1602;DHT22;794;48.592;9.634;2024-03-02T05:18:07;4.00;1.00
1602;DHT22;794;48.592;9.634;2024-03-02T05:20:34;3.90;1.00
1602;DHT22;794;48.592;9.634;2024-03-02T05:23:01;3.90;1.00
1602;DHT22;794;48.592;9.634;2024-03-02T05:25:28;3.60;1.00
1602;DHT22;794;48.592;9.634;2024-03-02T05:27:54;3.90;1.00
1602;DHT22;794;48.592;9.634;2024-03-02T05:30:21;3.90;1.00
1602;DHT22;794;48.592;9.634;2024-03-02T05:32:49;4.20;1.00
1602;DHT22;794;48.592;9.634;2024-03-02T05:35:16;4.00;1.00
1602;DHT22;794;48.592;9.634;2024-03-02T05:40:11;3.90;1.00
1602;DHT22;794;48.592;9.634;2024-03-02T05:45:07;3.80;1.00
1602;DHT22;794;48.592;9.634;2024-03-02T05:47:34;3.70;1.00
1602;DHT22;794;48.592;9.634;2024-03-02T05:50:03;3.90;1.00
1602;DHT22;794;48.592;9.634;2024-03-02T05:54:57;3.70;1.00
1602;DHT22;794;48.592;9.634;2024-03-02T05:57:24;3.80;1.00
1602;DHT22;794;48.592;9.634;2024-03-02T06:00:11;3.50;1.00
1602;DHT22;794;48.592;9.634;2024-03-02T06:02:39;3.40;1.00
1602;DHT22;794;48.592;9.634;2024-03-02T06:05:07;3.30;1.00
1602;DHT22;794;48.592;9.634;2024-03-02T06:07:35;3.30;1.00
1602;DHT22;794;48.592;9.634;2024-03-02T06:10:02;3.60;1.00
1602;DHT22;794;48.592;9.634;2024-03-02T06:12:31;3.50;1.00
1602;DHT22;794;48.592;9.634;2024-03-02T06:14:58;3.40;1.00
1602;DHT22;794;48.592;9.634;2024-03-02T06:17:25;3.60;1.00
1602;DHT22;794;48.592;9.634;2024-03-02T06:19:52;3.60;1.00
1602;DHT22;794;48.592;9.634;2024-03-02T06:22:20;3.60;1.00
1602;DHT22;794;48.592;9.634;2024-03-02T06:24:48;3.80;1.00
1602;DHT22;794;48.592;9.634;2024-03-02T06:27:15;3.60;1.00
1602;DHT22;794;48.592;9.634;2024-03-02T06:29:42;3.80;1.00
1602;DHT22;794;48.592;9.634;2024-03-02T06:34:36;3.90;1.00
1602;DHT22;794;48.592;9.634;2024-03-02T06:37:03;3.80;1.00
1602;DHT22;794;48.592;9.634;2024-03-02T06:39:31;3.60;1.00
1602;DHT22;794;48.592;9.634;2024-03-02T06:41:59;3.80;1.00
1602;DHT22;794;48.592;9.634;2024-03-02T06:44:26;3.70;1.00
1602;DHT22;794;48.592;9.634;2024-03-02T06:49:20;3.80;1.00
1602;DHT22;794;48.592;9.634;2024-03-02T06:54:15;4.20;1.00
1602;DHT22;794;48.592;9.634;2024-03-02T06:56:43;3.90;1.00
1602;DHT22;794;48.592;9.634;2024-03-02T06:59:10;4.20;1.00
1602;DHT22;794;48.592;9.634;2024-03-02T07:04:04;4.10;1.00
1602;DHT22;794;48.592;9.634;2024-03-02T07:06:32;4.40;1.00
1602;DHT22;794;48.592;9.634;2024-03-02T07:13:54;4.40;1.00
1602;DHT22;794;48.592;9.634;2024-03-02T07:16:21;4.70;1.00
1602;DHT22;794;48.592;9.634;2024-03-02T07:18:54;4.60;1.00
1602;DHT22;794;48.592;9.634;2024-03-02T07:21:22;4.80;1.00
1602;DHT22;794;48.592;9.634;2024-03-02T07:23:49;5.30;1.00
1602;DHT22;794;48.592;9.634;2024-03-02T07:26:16;5.00;1.00
1602;DHT22;794;48.592;9.634;2024-03-02T07:31:12;4.80;1.00
1602;DHT22;794;48.592;9.634;2024-03-02T07:36:07;5.50;1.00
1602;DHT22;794;48.592;9.634;2024-03-02T07:38:34;5.40;1.00
1602;DHT22;794;48.592;9.634;2024-03-02T07:41:01;5.30;1.00
1602;DHT22;794;48.592;9.634;2024-03-02T07:45:56;5.40;1.00
1602;DHT22;794;48.592;9.634;2024-03-02T07:48:24;6.00;1.00
1602;DHT22;794;48.592;9.634;2024-03-02T08:05:38;7.40;1.00
1602;DHT22;794;48.592;9.634;2024-03-02T08:22:50;12.20;1.00
1602;DHT22;794;48.592;9.634;2024-03-02T08:37:40;13.20;1.00
1602;DHT22;794;48.592;9.634;2024-03-02T08:40:10;13.20;1.00
1602;DHT22;794;48.592;9.634;2024-03-02T08:45:05;13.00;1.00
1602;DHT22;794;48.592;9.634;2024-03-02T08:57:23;12.80;1.00
1602;DHT22;794;48.592;9.634;2024-03-02T09:14:36;14.60;1.00
1602;DHT22;794;48.592;9.634;2024-03-02T09:29:24;14.00;1.00
1602;DHT22;794;48.592;9.634;2024-03-02T09:31:54;13.50;1.00
1602;DHT22;794;48.592;9.634;2024-03-02T09:34:21;13.60;1.00
1602;DHT22;794;48.592;9.634;2024-03-02T09:36:56;12.90;1.00
1602;DHT22;794;48.592;9.634;2024-03-02T09:41:51;12.80;1.00
1602;DHT22;794;48.592;9.634;2024-03-02T09:46:49;12.30;1.00
1602;DHT22;794;48.592;9.634;2024-03-02T09:49:17;12.80;1.00
1602;DHT22;794;48.592;9.634;2024-03-02T09:51:47;12.10;1.00
1602;DHT22;794;48.592;9.634;2024-03-02T09:54:15;12.70;1.00
1602;DHT22;794;48.592;9.634;2024-03-02T10:06:34;13.50;1.00
1602;DHT22;794;48.592;9.634;2024-03-02T10:11:29;14.10;1.00
1602;DHT22;794;48.592;9.634;2024-03-02T10:14:06;14.60;1.00
1602;DHT22;794;48.592;9.634;2024-03-02T10:16:37;14.70;1.00
1602;DHT22;794;48.592;9.634;2024-03-02T10:19:17;13.00;1.00
1602;DHT22;794;48.592;9.634;2024-03-02T10:21:46;13.60;1.00
1602;DHT22;794;48.592;9.634;2024-03-02T10:39:02;14.50;1.00
1602;DHT22;794;48.592;9.634;2024-03-02T10:43:57;14.70;1.00
1602;DHT22;794;48.592;9.634;2024-03-02T10:46:28;15.10;1.00
1602;DHT22;794;48.592;9.634;2024-03-02T10:56:28;16.50;1.00
1602;DHT22;794;48.592;9.634;2024-03-02T10:59:01;16.70;1.00
1602;DHT22;794;48.592;9.634;2024-03-02T11:01:29;16.80;1.00
1602;DHT22;794;48.592;9.634;2024-03-02T11:06:27;16.40;1.00
1602;DHT22;794;48.592;9.634;2024-03-02T11:09:00;15.10;1.00
1602;DHT22;794;48.592;9.634;2024-03-02T11:11:36;15.00;1.00
1602;DHT22;794;48.592;9.634;2024-03-02T11:14:06;14.60;1.00
1602;DHT22;794;48.592;9.634;2024-03-02T11:16:36;14.80;1.00
1602;DHT22;794;48.592;9.634;2024-03-02T11:19:05;14.00;1.00
1602;DHT22;794;48.592;9.634;2024-03-02T11:21:33;13.60;1.00
1602;DHT22;794;48.592;9.634;2024-03-02T11:24:01;13.50;1.00
1602;DHT22;794;48.592;9.634;2024-03-02T11:26:49;13.10;1.00
1602;DHT22;794;48.592;9.634;2024-03-02T11:29:43;12.30;1.00
1602;DHT22;794;48.592;9.634;2024-03-02T11:32:23;12.40;1.00
1602;DHT22;794;48.592;9.634;2024-03-02T11:34:51;12.30;1.00
1602;DHT22;794;48.592;9.634;2024-03-02T11:37:19;12.00;1.00
1602;DHT22;794;48.592;9.634;2024-03-02T11:39:48;12.60;1.00
1602;DHT22;794;48.592;9.634;2024-03-02T11:42:17;12.30;1.00
1602;DHT22;794;48.592;9.634;2024-03-02T11:44:46;12.10;1.00
1602;DHT22;794;48.592;9.634;2024-03-02T11:47:15;11.80;1.00
1602;DHT22;794;48.592;9.634;2024-03-02T11:49:43;11.70;1.00
1602;DHT22;794;48.592;9.634;2024-03-02T11:52:13;11.60;1.00
1602;DHT22;794;48.592;9.634;2024-03-02T11:54:53;11.70;1.00
1602;DHT22;794;48.592;9.634;2024-03-02T12:00:31;11.90;1.00
1602;DHT22;794;48.592;9.634;2024-03-02T12:03:01;11.80;1.00
1602;DHT22;794;48.592;9.634;2024-03-02T12:05:28;11.80;1.00
1602;DHT22;794;48.592;9.634;2024-03-02T12:07:57;12.10;1.00
1602;DHT22;794;48.592;9.634;2024-03-02T12:10:24;12.30;1.00
1602;DHT22;794;48.592;9.634;2024-03-02T12:12:56;12.40;1.00
1602;DHT22;794;48.592;9.634;2024-03-02T12:15:25;12.40;1.00
1602;DHT22;794;48.592;9.634;2024-03-02T12:17:57;12.90;1.00
1602;DHT22;794;48.592;9.634;2024-03-02T12:20:26;12.90;1.00
1602;DHT22;794;48.592;9.634;2024-03-02T12:22:55;13.10;1.00
1602;DHT22;794;48.592;9.634;2024-03-02T12:25:23;12.70;1.00
1602;DHT22;794;48.592;9.634;2024-03-02T12:27:52;12.60;1.00
1602;DHT22;794;48.592;9.634;2024-03-02T12:30:20;12.50;1.00
1602;DHT22;794;48.592;9.634;2024-03-02T12:32:48;12.40;1.00
1602;DHT22;794;48.592;9.634;2024-03-02T12:35:18;12.10;1.00
1602;DHT22;794;48.592;9.634;2024-03-02T12:40:13;12.00;1.00
1602;DHT22;794;48.592;9.634;2024-03-02T12:42:41;12.00;1.00
1602;DHT22;794;48.592;9.634;2024-03-02T12:45:16;12.20;1.00
1602;DHT22;794;48.592;9.634;2024-03-02T12:48:09;14.10;1.00
1602;DHT22;794;48.592;9.634;2024-03-02T12:50:37;12.40;1.00
1602;DHT22;794;48.592;9.634;2024-03-02T12:58:00;12.70;1.00
1602;DHT22;794;48.592;9.634;2024-03-02T13:02:59;13.20;1.00
1602;DHT22;794;48.592;9.634;2024-03-02T13:05:30;13.20;1.00
1602;DHT22;794;48.592;9.634;2024-03-02T13:07:58;13.50;1.00
1602;DHT22;794;48.592;9.634;2024-03-02T13:10:26;13.20;1.00
1602;DHT22;794;48.592;9.634;2024-03-02T13:12:56;13.20;1.00
1602;DHT22;794;48.592;9.634;2024-03-02T13:15:23;13.20;1.00
1602;DHT22;794;48.592;9.634;2024-03-02T13:22:44;13.50;1.00
1602;DHT22;794;48.592;9.634;2024-03-02T13:25:13;13.20;1.00
1602;DHT22;794;48.592;9.634;2024-03-02T13:27:40;13.10;1.00
1602;DHT22;794;48.592;9.634;2024-03-02T13:30:08;12.90;1.00
1602;DHT22;794;48.592;9.634;2024-03-02T13:32:35;12.70;1.00
1602;DHT22;794;48.592;9.634;2024-03-02T13:35:02;12.90;1.00
1602;DHT22;794;48.592;9.634;2024-03-02T13:37:29;12.50;1.00
1602;DHT22;794;48.592;9.634;2024-03-02T13:40:03;12.60;1.00
1602;DHT22;794;48.592;9.634;2024-03-02T13:42:45;12.80;1.00
1602;DHT22;794;48.592;9.634;2024-03-02T13:45:12;12.90;1.00
1602;DHT22;794;48.592;9.634;2024-03-02T13:47:39;13.00;1.00
1602;DHT22;794;48.592;9.634;2024-03-02T13:50:07;13.00;1.00
1602;DHT22;794;48.592;9.634;2024-03-02T13:52:34;13.30;1.00
1602;DHT22;794;48.592;9.634;2024-03-02T13:55:01;13.10;1.00
1602;DHT22;794;48.592;9.634;2024-03-02T13:57:28;13.40;1.00
1602;DHT22;794;48.592;9.634;2024-03-02T13:59:57;13.10;1.00
1602;DHT22;794;48.592;9.634;2024-03-02T14:02:24;13.10;1.00
1602;DHT22;794;48.592;9.634;2024-03-02T14:04:51;12.90;1.00
1602;DHT22;794;48.592;9.634;2024-03-02T14:07:18;12.80;1.00
1602;DHT22;794;48.592;9.634;2024-03-02T14:09:45;12.70;1.00
1602;DHT22;794;48.592;9.634;2024-03-02T14:12:12;12.70;1.00
1602;DHT22;794;48.592;9.634;2024-03-02T14:14:39;12.40;1.00
1602;DHT22;794;48.592;9.634;2024-03-02T14:17:08;12.80;1.00
1602;DHT22;794;48.592;9.634;2024-03-02T14:22:07;12.90;1.00
1602;DHT22;794;48.592;9.634;2024-03-02T14:24:34;13.00;1.00
1602;DHT22;794;48.592;9.634;2024-03-02T14:27:01;12.80;1.00
1602;DHT22;794;48.592;9.634;2024-03-02T14:29:30;13.10;1.00
1602;DHT22;794;48.592;9.634;2024-03-02T14:31:59;12.90;1.00
1602;DHT22;794;48.592;9.634;2024-03-02T14:34:44;13.10;1.00
1602;DHT22;794;48.592;9.634;2024-03-02T14:37:12;13.00;1.00
1602;DHT22;794;48.592;9.634;2024-03-02T14:39:40;12.80;1.00
1602;DHT22;794;48.592;9.634;2024-03-02T14:42:06;12.70;1.00
1602;DHT22;794;48.592;9.634;2024-03-02T14:44:33;12.90;1.00
1602;DHT22;794;48.592;9.634;2024-03-02T14:47:01;12.80;1.00
1602;DHT22;794;48.592;9.634;2024-03-02T14:49:29;12.80;1.00
1602;DHT22;794;48.592;9.634;2024-03-02T14:51:58;12.70;1.00
1602;DHT22;794;48.592;9.634;2024-03-02T14:54:25;12.50;1.00
1602;DHT22;794;48.592;9.634;2024-03-02T14:56:52;12.50;1.00
1602;DHT22;794;48.592;9.634;2024-03-02T14:59:18;12.90;1.00
1602;DHT22;794;48.592;9.634;2024-03-02T15:01:45;12.90;1.00
1602;DHT22;794;48.592;9.634;2024-03-02T15:04:14;12.70;1.00
1602;DHT22;794;48.592;9.634;2024-03-02T15:06:42;12.60;1.00
1602;DHT22;794;48.592;9.634;2024-03-02T15:09:10;12.70;1.00
1602;DHT22;794;48.592;9.634;2024-03-02T15:14:05;12.60;1.00
1602;DHT22;794;48.592;9.634;2024-03-02T15:21:26;12.60;1.00
1602;DHT22;794;48.592;9.634;2024-03-02T15:23:53;12.50;1.00
1602;DHT22;794;48.592;9.634;2024-03-02T15:26:21;12.60;1.00
1602;DHT22;794;48.592;9.634;2024-03-02T15:28:48;12.40;1.00
1602;DHT22;794;48.592;9.634;2024-03-02T15:31:15;12.30;1.00
1602;DHT22;794;48.592;9.634;2024-03-02T15:33:42;12.40;1.00
1602;DHT22;794;48.592;9.634;2024-03-02T15:36:09;12.30;1.00
1602;DHT22;794;48.592;9.634;2024-03-02T15:38:44;12.00;1.00
1602;DHT22;794;48.592;9.634;2024-03-02T15:41:11;12.10;1.00
1602;DHT22;794;48.592;9.634;2024-03-02T15:43:39;12.30;1.00
1602;DHT22;794;48.592;9.634;2024-03-02T15:46:08;12.20;1.00
1602;DHT22;794;48.592;9.634;2024-03-02T15:48:35;12.00;1.00
1602;DHT22;794;48.592;9.634;2024-03-02T15:51:02;11.70;1.00
1602;DHT22;794;48.592;9.634;2024-03-02T15:53:29;11.60;1.00
1602;DHT22;794;48.592;9.634;2024-03-02T15:55:56;11.50;1.00
1602;DHT22;794;48.592;9.634;2024-03-02T16:00:52;11.40;1.00
1602;DHT22;794;48.592;9.634;2024-03-02T16:03:19;11.20;1.00
1602;DHT22;794;48.592;9.634;2024-03-02T16:08:13;10.90;1.00
1602;DHT22;794;48.592;9.634;2024-03-02T16:13:07;10.90;1.00
1602;DHT22;794;48.592;9.634;2024-03-02T16:15:34;11.00;1.00
1602;DHT22;794;48.592;9.634;2024-03-02T16:18:03;10.90;1.00
1602;DHT22;794;48.592;9.634;2024-03-02T16:22:57;10.70;1.00
1602;DHT22;794;48.592;9.634;2024-03-02T16:25:24;10.80;1.00
1602;DHT22;794;48.592;9.634;2024-03-02T16:27:52;10.70;1.00
1602;DHT22;794;48.592;9.634;2024-03-02T16:32:50;10.50;1.00
1602;DHT22;794;48.592;9.634;2024-03-02T16:35:18;10.70;1.00
1602;DHT22;794;48.592;9.634;2024-03-02T16:37:45;10.50;1.00
1602;DHT22;794;48.592;9.634;2024-03-02T16:40:12;10.30;1.00
1602;DHT22;794;48.592;9.634;2024-03-02T16:45:07;10.10;1.00
1602;DHT22;794;48.592;9.634;2024-03-02T16:52:33;10.40;1.00
1602;DHT22;794;48.592;9.634;2024-03-02T16:55:00;10.40;1.00
1602;DHT22;794;48.592;9.634;2024-03-02T17:02:24;9.90;1.00
1602;DHT22;794;48.592;9.634;2024-03-02T17:07:19;9.90;1.00
1602;DHT22;794;48.592;9.634;2024-03-02T17:09:47;10.00;1.00
1602;DHT22;794;48.592;9.634;2024-03-02T17:17:08;9.90;1.00
1602;DHT22;794;48.592;9.634;2024-03-02T17:19:35;9.70;1.00
1602;DHT22;794;48.592;9.634;2024-03-02T17:22:02;10.10;1.00
1602;DHT22;794;48.592;9.634;2024-03-02T17:24:29;10.00;1.00
1602;DHT22;794;48.592;9.634;2024-03-02T17:26:57;9.70;1.00
1602;DHT22;794;48.592;9.634;2024-03-02T17:29:25;9.60;1.00
1602;DHT22;794;48.592;9.634;2024-03-02T17:31:51;9.60;1.00
1602;DHT22;794;48.592;9.634;2024-03-02T17:36:45;9.50;1.00
1602;DHT22;794;48.592;9.634;2024-03-02T17:39:12;9.50;1.00
1602;DHT22;794;48.592;9.634;2024-03-02T17:41:39;10.00;1.00
1602;DHT22;794;48.592;9.634;2024-03-02T17:44:07;9.50;1.00
1602;DHT22;794;48.592;9.634;2024-03-02T17:46:35;9.10;1.00
1602;DHT22;794;48.592;9.634;2024-03-02T17:49:01;9.40;1.00
1602;DHT22;794;48.592;9.634;2024-03-02T17:53:56;9.40;1.00
1602;DHT22;794;48.592;9.634;2024-03-02T17:56:22;9.10;1.00
1602;DHT22;794;48.592;9.634;2024-03-02T17:58:49;9.20;1.00
1602;DHT22;794;48.592;9.634;2024-03-02T18:01:18;9.10;1.00
1602;DHT22;794;48.592;9.634;2024-03-02T18:03:45;9.10;1.00
1602;DHT22;794;48.592;9.634;2024-03-02T18:06:13;9.20;1.00
1602;DHT22;794;48.592;9.634;2024-03-02T18:08:40;9.10;1.00
1602;DHT22;794;48.592;9.634;2024-03-02T18:16:02;9.20;1.00
1602;DHT22;794;48.592;9.634;2024-03-02T18:18:31;9.10;1.00
1602;DHT22;794;48.592;9.634;2024-03-02T18:20:58;9.10;1.00
1602;DHT22;794;48.592;9.634;2024-03-02T18:23:25;8.90;1.00
1602;DHT22;794;48.592;9.634;2024-03-02T18:25:52;8.70;1.00
1602;DHT22;794;48.592;9.634;2024-03-02T18:28:19;7.80;1.00
1602;DHT22;794;48.592;9.634;2024-03-02T18:30:46;9.00;1.00
1602;DHT22;794;48.592;9.634;2024-03-02T18:35:42;8.90;1.00
1602;DHT22;794;48.592;9.634;2024-03-02T18:38:09;8.90;1.00
1602;DHT22;794;48.592;9.634;2024-03-02T18:43:03;8.70;1.00
1602;DHT22;794;48.592;9.634;2024-03-02T18:45:31;8.90;1.00
1602;DHT22;794;48.592;9.634;2024-03-02T18:47:58;8.80;1.00
1602;DHT22;794;48.592;9.634;2024-03-02T18:52:55;8.80;1.00
1602;DHT22;794;48.592;9.634;2024-03-02T18:57:49;8.80;1.00
1602;DHT22;794;48.592;9.634;2024-03-02T19:00:17;8.70;1.00
1602;DHT22;794;48.592;9.634;2024-03-02T19:02:44;8.70;1.00
1602;DHT22;794;48.592;9.634;2024-03-02T19:05:11;8.50;1.00
1602;DHT22;794;48.592;9.634;2024-03-02T19:07:37;8.50;1.00
1602;DHT22;794;48.592;9.634;2024-03-02T19:10:07;8.50;1.00
1602;DHT22;794;48.592;9.634;2024-03-02T19:12:36;8.60;1.00
1602;DHT22;794;48.592;9.634;2024-03-02T19:15:04;8.30;1.00
1602;DHT22;794;48.592;9.634;2024-03-02T19:17:31;8.50;1.00
1602;DHT22;794;48.592;9.634;2024-03-02T19:19:58;9.20;1.00
1602;DHT22;794;48.592;9.634;2024-03-02T19:22:25;8.50;1.00
1602;DHT22;794;48.592;9.634;2024-03-02T19:24:53;8.30;1.00
1602;DHT22;794;48.592;9.634;2024-03-02T19:27:23;8.30;1.00
1602;DHT22;794;48.592;9.634;2024-03-02T19:34:47;8.10;1.00
1602;DHT22;794;48.592;9.634;2024-03-02T19:37:14;7.90;1.00
1602;DHT22;794;48.592;9.634;2024-03-02T19:39:41;8.00;1.00
1602;DHT22;794;48.592;9.634;2024-03-02T19:42:08;8.00;1.00
1602;DHT22;794;48.592;9.634;2024-03-02T19:44:36;8.00;1.00
1602;DHT22;794;48.592;9.634;2024-03-02T19:47:03;8.40;1.00
1602;DHT22;794;48.592;9.634;2024-03-02T19:49:30;9.70;1.00
1602;DHT22;794;48.592;9.634;2024-03-02T19:54:24;7.80;1.00
1602;DHT22;794;48.592;9.634;2024-03-02T19:56:51;8.50;1.00
1602;DHT22;794;48.592;9.634;2024-03-02T19:59:20;8.30;1.00
1602;DHT22;794;48.592;9.634;2024-03-02T20:01:49;8.00;1.00
1602;DHT22;794;48.592;9.634;2024-03-02T20:04:16;7.90;1.00
1602;DHT22;794;48.592;9.634;2024-03-02T20:06:46;7.70;1.00
1602;DHT22;794;48.592;9.634;2024-03-02T20:09:13;7.80;1.00
1602;DHT22;794;48.592;9.634;2024-03-02T20:14:09;7.70;1.00
1602;DHT22;794;48.592;9.634;2024-03-02T20:19:05;7.80;1.00
1602;DHT22;794;48.592;9.634;2024-03-02T20:23:59;7.50;1.00
1602;DHT22;794;48.592;9.634;2024-03-02T20:31:22;7.90;1.00
1602;DHT22;794;48.592;9.634;2024-03-02T20:33:49;7.60;1.00
1602;DHT22;794;48.592;9.634;2024-03-02T20:36:17;7.30;1.00
1602;DHT22;794;48.592;9.634;2024-03-02T20:41:15;7.60;1.00
1602;DHT22;794;48.592;9.634;2024-03-02T20:46:10;7.50;1.00
1602;DHT22;794;48.592;9.634;2024-03-02T20:48:37;7.30;1.00
1602;DHT22;794;48.592;9.634;2024-03-02T20:51:04;7.50;1.00
1602;DHT22;794;48.592;9.634;2024-03-02T20:53:34;7.40;1.00
1602;DHT22;794;48.592;9.634;2024-03-02T20:56:01;7.30;1.00
1602;DHT22;794;48.592;9.634;2024-03-02T21:00:58;7.20;1.00
1602;DHT22;794;48.592;9.634;2024-03-02T21:08:26;7.30;1.00
1602;DHT22;794;48.592;9.634;2024-03-02T21:10:55;8.40;1.00
1602;DHT22;794;48.592;9.634;2024-03-02T21:15:51;7.10;1.00
1602;DHT22;794;48.592;9.634;2024-03-02T21:18:18;7.20;1.00
1602;DHT22;794;48.592;9.634;2024-03-02T21:23:12;7.20;1.00
1602;DHT22;794;48.592;9.634;2024-03-02T21:28:09;7.40;1.00
1602;DHT22;794;48.592;9.634;2024-03-02T21:30:36;7.50;1.00
1602;DHT22;794;48.592;9.634;2024-03-02T21:33:03;7.20;1.00
1602;DHT22;794;48.592;9.634;2024-03-02T21:35:30;7.20;1.00
1602;DHT22;794;48.592;9.634;2024-03-02T21:37:58;7.30;1.00
1602;DHT22;794;48.592;9.634;2024-03-02T21:45:21;7.30;1.00
1602;DHT22;794;48.592;9.634;2024-03-02T21:57:38;7.20;1.00
1602;DHT22;794;48.592;9.634;2024-03-02T22:00:06;8.50;1.00
1602;DHT22;794;48.592;9.634;2024-03-02T22:02:35;7.00;1.00
1602;DHT22;794;48.592;9.634;2024-03-02T22:05:02;7.00;1.00
1602;DHT22;794;48.592;9.634;2024-03-02T22:07:31;7.00;1.00
1602;DHT22;794;48.592;9.634;2024-03-02T22:09:58;7.40;1.00
1602;DHT22;794;48.592;9.634;2024-03-02T22:12:24;7.30;1.00
1602;DHT22;794;48.592;9.634;2024-03-02T22:14:51;7.30;1.00
1602;DHT22;794;48.592;9.634;2024-03-02T22:17:18;7.10;1.00
1602;DHT22;794;48.592;9.634;2024-03-02T22:19:47;7.30;1.00
1602;DHT22;794;48.592;9.634;2024-03-02T22:27:08;7.40;1.00
1602;DHT22;794;48.592;9.634;2024-03-02T22:29:35;7.10;1.00
1602;DHT22;794;48.592;9.634;2024-03-02T22:32:04;8.70;1.00
1602;DHT22;794;48.592;9.634;2024-03-02T22:34:31;7.20;1.00
1602;DHT22;794;48.592;9.634;2024-03-02T22:36:59;7.10;1.00